Sharpsburg, Georgia
Current Conditions -  °F | °C
As of 10:53 PM on Tuesday 25 Nov 2014 (Local Time) from KFFC Reporting Station
Overcast Overcast  
Wind Chill: 48°   Ceiling: 8500
Heat Index: 48°   Visibility: 10mi
Dew Point: 43°   Wind: 0mph
Humidity: 83%   Direction: NA
Pressure: 30.07"   Gusts: NA
Location:  33.34°N, 84.65°W
Report Text: KFFC 260353Z AUTO 00000KT 10SM OVC085 09/06 A3007 RMK AO2 SLP184 T00890061
Loading
Personal Weather Stations






























Interactive Weather Map New forecast layout! Learn more

10-Day Weather Forecast

Advertisements
Track Severe Weather on mobile